PWSweather.com
Personal Weather Stations
Station Observations
KNVELKO7
Elko, NV 89801

Elko, NV 89801

Lat: 40.963233, Lon: -115.592836

Elevation: 5230

Station Type: WS-2812

High Low Average
Temperature 83.0°F28.3°C 41.8°F5.4°C 63.1°F17.3°C
Dew Point 55.7°F13.2°C 36.0°F2.2°C 42.8°F6.0°C
Winds 18.7 mph 30.1 kmh Calm Calm 5.0 mph SSE8.0 kmh SSE
Wind Gusts 20.1 mph32.3 kmh -- 7.0 mph11.3 kmh
Humidity 83% 25% 52%
Pressure 30.13 in1020.3 mb 30.02 in1016.6 mb -
Precipitation 0.00 in0.0 mm - -
Hour Temp Dew Point Humidity Winds Wind Gusts Pressure Precip Precip Rate Daily Precip Total
12:01 AM 50.8°F10.4°C 40.6°F4.8°C 68% 1.6 mph NE2.6 kmh NE 6.9 mph11.1 kmh 30.10 in1019.3 mb 0.00 in0.0 mm 0.00 in0.0 mm 0.00 in0.0 mm
12:06 AM 50.9°F10.5°C 40.8°F4.9°C 68% 2.4 mph ENE3.9 kmh ENE 3.4 mph5.5 kmh 30.10 in1019.3 mb 0.00 in0.0 mm 0.00 in0.0 mm 0.00 in0.0 mm
12:11 AM 50.8°F10.4°C 40.6°F4.8°C 68% 2.3 mph WNW3.7 kmh WNW 3.4 mph5.5 kmh 30.10 in1019.3 mb 0.00 in0.0 mm 0.00 in0.0 mm 0.00 in0.0 mm
12:16 AM 50.0°F10.0°C 39.9°F4.4°C 68% 1.7 mph NNW2.7 kmh NNW 3.8 mph6.1 kmh 30.10 in1019.3 mb 0.00 in0.0 mm 0.00 in0.0 mm 0.00 in0.0 mm
12:21 AM 49.7°F9.8°C 39.2°F4.0°C 67% 5.1 mph NE8.2 kmh NE 5.4 mph8.7 kmh 30.10 in1019.3 mb 0.00 in0.0 mm 0.00 in0.0 mm 0.00 in0.0 mm
12:26 AM 49.3°F9.6°C 39.6°F4.2°C 69% 2.2 mph NNE3.5 kmh NNE 6.5 mph10.5 kmh 30.10 in1019.3 mb 0.00 in0.0 mm 0.00 in0.0 mm 0.00 in0.0 mm
12:31 AM 49.0°F9.4°C 39.3°F4.1°C 69% 2.1 mph 3.4 kmh 6.5 mph10.5 kmh 30.09 in1019.0 mb 0.00 in0.0 mm 0.00 in0.0 mm 0.00 in0.0 mm
12:36 AM 48.6°F9.2°C 38.9°F3.8°C 69% 1.1 mph 1.8 kmh 2.7 mph4.3 kmh 30.10 in1019.3 mb 0.00 in0.0 mm 0.00 in0.0 mm 0.00 in0.0 mm
12:41 AM 48.6°F9.2°C 38.9°F3.8°C 69% 1.2 mph 1.9 kmh 3.1 mph5.0 kmh 30.09 in1019.0 mb 0.00 in0.0 mm 0.00 in0.0 mm 0.00 in0.0 mm
12:46 AM 48.4°F9.1°C 38.7°F3.7°C 69% 1.8 mph 2.9 kmh 3.1 mph5.0 kmh 30.09 in1019.0 mb 0.00 in0.0 mm 0.00 in0.0 mm 0.00 in0.0 mm
12:51 AM 48.1°F8.9°C 38.4°F3.6°C 69% 3.5 mph 5.6 kmh 4.0 mph6.4 kmh 30.10 in1019.3 mb 0.00 in0.0 mm 0.00 in0.0 mm 0.00 in0.0 mm
12:56 AM 47.9°F8.8°C 38.9°F3.8°C 71% 4.0 mph NNE6.4 kmh NNE 4.9 mph7.9 kmh 30.10 in1019.3 mb 0.00 in0.0 mm 0.00 in0.0 mm 0.00 in0.0 mm
01:00 AM 48.1°F8.9°C 39.1°F3.9°C 71% 4.1 mph NNE6.6 kmh NNE 4.9 mph7.9 kmh 30.10 in1019.3 mb 0.00 in0.0 mm 0.00 in0.0 mm 0.00 in0.0 mm
01:05 AM 47.9°F8.8°C 38.9°F3.8°C 71% 2.5 mph SW4.0 kmh SW 4.7 mph7.6 kmh 30.10 in1019.3 mb 0.00 in0.0 mm 0.00 in0.0 mm 0.00 in0.0 mm
01:10 AM 47.7°F8.7°C 39.1°F3.9°C 72% 0.8 mph 1.3 kmh 4.7 mph7.6 kmh 30.10 in1019.3 mb 0.00 in0.0 mm 0.00 in0.0 mm 0.00 in0.0 mm
01:15 AM 47.5°F8.6°C 38.9°F3.8°C 72% Calm Calm 2.0 mph3.2 kmh 30.10 in1019.3 mb 0.00 in0.0 mm 0.00 in0.0 mm 0.00 in0.0 mm
01:21 AM 47.3°F8.5°C 38.8°F3.8°C 72% 2.2 mph NNW3.5 kmh NNW 2.5 mph4.0 kmh 30.10 in1019.3 mb 0.00 in0.0 mm 0.00 in0.0 mm 0.00 in0.0 mm
01:26 AM 46.8°F8.2°C 38.3°F3.5°C 72% 1.1 mph N1.8 kmh N 2.5 mph4.0 kmh 30.09 in1019.0 mb 0.00 in0.0 mm 0.00 in0.0 mm 0.00 in0.0 mm
01:31 AM 46.4°F8.0°C 37.6°F3.1°C 71% 2.5 mph NE4.0 kmh NE 2.5 mph4.0 kmh 30.09 in1019.0 mb 0.00 in0.0 mm 0.00 in0.0 mm 0.00 in0.0 mm
01:36 AM 46.4°F8.0°C 38.0°F3.3°C 72% 5.1 mph NE8.2 kmh NE 5.6 mph9.0 kmh 30.09 in1019.0 mb 0.00 in0.0 mm 0.00 in0.0 mm 0.00 in0.0 mm
01:41 AM 46.4°F8.0°C 38.6°F3.7°C 74% 4.9 mph NE7.9 kmh NE 6.3 mph10.1 kmh 30.09 in1019.0 mb 0.00 in0.0 mm 0.00 in0.0 mm 0.00 in0.0 mm
01:46 AM 46.1°F7.8°C 38.3°F3.5°C 74% 4.5 mph SSW7.2 kmh SSW 6.3 mph10.1 kmh 30.09 in1019.0 mb 0.00 in0.0 mm 0.00 in0.0 mm 0.00 in0.0 mm
01:51 AM 45.7°F7.6°C 37.9°F3.3°C 74% 1.5 mph SW2.4 kmh SW 4.7 mph7.6 kmh 30.09 in1019.0 mb 0.00 in0.0 mm 0.00 in0.0 mm 0.00 in0.0 mm
01:56 AM 45.5°F7.5°C 38.1°F3.4°C 75% 2.8 mph NW4.5 kmh NW 3.8 mph6.1 kmh 30.09 in1019.0 mb 0.00 in0.0 mm 0.00 in0.0 mm 0.00 in0.0 mm
02:01 AM 45.0°F7.2°C 36.8°F2.7°C 73% 5.3 mph N8.5 kmh N 6.5 mph10.5 kmh 30.09 in1019.0 mb 0.00 in0.0 mm 0.00 in0.0 mm 0.00 in0.0 mm
02:06 AM 44.6°F7.0°C 36.8°F2.7°C 74% 5.2 mph 8.4 kmh 6.5 mph10.5 kmh 30.10 in1019.3 mb 0.00 in0.0 mm 0.00 in0.0 mm 0.00 in0.0 mm
02:11 AM 44.8°F7.1°C 37.4°F3.0°C 75% 6.6 mph N10.6 kmh N 7.6 mph12.2 kmh 30.09 in1019.0 mb 0.00 in0.0 mm 0.00 in0.0 mm 0.00 in0.0 mm
02:16 AM 44.8°F7.1°C 37.7°F3.2°C 76% 6.4 mph N10.3 kmh N 7.6 mph12.2 kmh 30.09 in1019.0 mb 0.00 in0.0 mm 0.00 in0.0 mm 0.00 in0.0 mm
02:21 AM 45.0°F7.2°C 38.5°F3.6°C 78% 6.3 mph NE10.1 kmh NE 7.2 mph11.6 kmh 30.09 in1019.0 mb 0.00 in0.0 mm 0.00 in0.0 mm 0.00 in0.0 mm
02:26 AM 45.0°F7.2°C 38.3°F3.5°C 77% 4.6 mph 7.4 kmh 6.9 mph11.1 kmh 30.09 in1019.0 mb 0.00 in0.0 mm 0.00 in0.0 mm 0.00 in0.0 mm
02:31 AM 44.6°F7.0°C 37.9°F3.3°C 77% 3.5 mph NNE5.6 kmh NNE 6.7 mph10.8 kmh 30.09 in1019.0 mb 0.00 in0.0 mm 0.00 in0.0 mm 0.00 in0.0 mm
02:36 AM 44.5°F6.9°C 37.7°F3.2°C 77% 2.3 mph 3.7 kmh 4.7 mph7.6 kmh 30.09 in1019.0 mb 0.00 in0.0 mm 0.00 in0.0 mm 0.00 in0.0 mm
02:41 AM 44.3°F6.8°C 37.5°F3.1°C 77% 0.9 mph 1.4 kmh 3.4 mph5.5 kmh 30.09 in1019.0 mb 0.00 in0.0 mm 0.00 in0.0 mm 0.00 in0.0 mm
02:46 AM 44.1°F6.7°C 37.4°F3.0°C 77% 0.6 mph NE1.0 kmh NE 1.8 mph2.9 kmh 30.09 in1019.0 mb 0.00 in0.0 mm 0.00 in0.0 mm 0.00 in0.0 mm
02:51 AM 44.1°F6.7°C 37.4°F3.0°C 77% 0.4 mph NE0.6 kmh NE 1.1 mph1.8 kmh 30.10 in1019.3 mb 0.00 in0.0 mm 0.00 in0.0 mm 0.00 in0.0 mm
02:56 AM 43.9°F6.6°C 37.2°F2.9°C 77% 1.7 mph 2.7 kmh 1.8 mph2.9 kmh 30.10 in1019.3 mb 0.00 in0.0 mm 0.00 in0.0 mm 0.00 in0.0 mm
03:02 AM 43.7°F6.5°C 37.0°F2.8°C 77% 2.5 mph 4.0 kmh 2.7 mph4.3 kmh 30.10 in1019.3 mb 0.00 in0.0 mm 0.00 in0.0 mm 0.00 in0.0 mm
03:07 AM 43.7°F6.5°C 37.0°F2.8°C 77% 0.6 mph 1.0 kmh 2.7 mph4.3 kmh 30.10 in1019.3 mb 0.00 in0.0 mm 0.00 in0.0 mm 0.00 in0.0 mm
03:11 AM 43.7°F6.5°C 37.4°F3.0°C 78% 1.5 mph ENE2.4 kmh ENE 2.5 mph4.0 kmh 30.10 in1019.3 mb 0.00 in0.0 mm 0.00 in0.0 mm 0.00 in0.0 mm
03:16 AM 43.9°F6.6°C 37.5°F3.1°C 78% 1.7 mph ENE2.7 kmh ENE 2.5 mph4.0 kmh 30.10 in1019.3 mb 0.00 in0.0 mm 0.00 in0.0 mm 0.00 in0.0 mm
03:21 AM 43.9°F6.6°C 37.5°F3.1°C 78% 1.1 mph 1.8 kmh 1.8 mph2.9 kmh 30.09 in1019.0 mb 0.00 in0.0 mm 0.00 in0.0 mm 0.00 in0.0 mm
03:26 AM 43.7°F6.5°C 37.4°F3.0°C 78% 3.3 mph E5.3 kmh E 3.8 mph6.1 kmh 30.10 in1019.3 mb 0.00 in0.0 mm 0.00 in0.0 mm 0.00 in0.0 mm
03:31 AM 43.7°F6.5°C 37.6°F3.1°C 79% 3.8 mph E6.1 kmh E 4.3 mph6.9 kmh 30.09 in1019.0 mb 0.00 in0.0 mm 0.00 in0.0 mm 0.00 in0.0 mm
03:36 AM 43.9°F6.6°C 37.8°F3.2°C 79% 4.5 mph NE7.2 kmh NE 4.7 mph7.6 kmh 30.10 in1019.3 mb 0.00 in0.0 mm 0.00 in0.0 mm 0.00 in0.0 mm
03:41 AM 43.9°F6.6°C 37.5°F3.1°C 78% 3.0 mph NE4.8 kmh NE 4.7 mph7.6 kmh 30.10 in1019.3 mb 0.00 in0.0 mm 0.00 in0.0 mm 0.00 in0.0 mm
03:46 AM 43.7°F6.5°C 37.6°F3.1°C 79% 1.3 mph 2.1 kmh 4.7 mph7.6 kmh 30.10 in1019.3 mb 0.00 in0.0 mm 0.00 in0.0 mm 0.00 in0.0 mm
03:51 AM 43.6°F6.4°C 37.4°F3.0°C 79% 1.9 mph NNE3.1 kmh NNE 2.0 mph3.2 kmh 30.10 in1019.3 mb 0.00 in0.0 mm 0.00 in0.0 mm 0.00 in0.0 mm
03:56 AM 43.6°F6.4°C 37.4°F3.0°C 79% 1.4 mph NNE2.3 kmh NNE 2.0 mph3.2 kmh 30.10 in1019.3 mb 0.00 in0.0 mm 0.00 in0.0 mm 0.00 in0.0 mm
04:02 AM 43.2°F6.2°C 37.1°F2.8°C 79% 1.0 mph NNE1.6 kmh NNE 1.8 mph2.9 kmh 30.10 in1019.3 mb 0.00 in0.0 mm 0.00 in0.0 mm 0.00 in0.0 mm
04:07 AM 43.0°F6.1°C 36.9°F2.7°C 79% 1.2 mph NNE1.9 kmh NNE 1.6 mph2.6 kmh 30.10 in1019.3 mb 0.00 in0.0 mm 0.00 in0.0 mm 0.00 in0.0 mm
04:12 AM 42.8°F6.0°C 36.7°F2.6°C 79% 2.0 mph NE3.2 kmh NE 2.2 mph3.5 kmh 30.10 in1019.3 mb 0.00 in0.0 mm 0.00 in0.0 mm 0.00 in0.0 mm
04:17 AM 42.8°F6.0°C 36.7°F2.6°C 79% 1.3 mph ENE2.1 kmh ENE 2.5 mph4.0 kmh 30.10 in1019.3 mb 0.00 in0.0 mm 0.00 in0.0 mm 0.00 in0.0 mm
04:22 AM 42.7°F5.9°C 36.5°F2.5°C 79% 1.4 mph N2.3 kmh N 2.5 mph4.0 kmh 30.10 in1019.3 mb 0.00 in0.0 mm 0.00 in0.0 mm 0.00 in0.0 mm
04:27 AM 42.5°F5.8°C 36.4°F2.4°C 79% 2.8 mph 4.5 kmh 3.1 mph5.0 kmh 30.10 in1019.3 mb 0.00 in0.0 mm 0.00 in0.0 mm 0.00 in0.0 mm
04:32 AM 42.1°F5.6°C 36.0°F2.2°C 79% 2.5 mph 4.0 kmh 3.1 mph5.0 kmh 30.10 in1019.3 mb 0.00 in0.0 mm 0.00 in0.0 mm 0.00 in0.0 mm
04:37 AM 42.1°F5.6°C 36.0°F2.2°C 79% 3.7 mph 6.0 kmh 4.7 mph7.6 kmh 30.10 in1019.3 mb 0.00 in0.0 mm 0.00 in0.0 mm 0.00 in0.0 mm
04:41 AM 42.1°F5.6°C 36.0°F2.2°C 79% 5.3 mph 8.5 kmh 6.0 mph9.7 kmh 30.10 in1019.3 mb 0.00 in0.0 mm 0.00 in0.0 mm 0.00 in0.0 mm
04:46 AM 42.1°F5.6°C 36.0°F2.2°C 79% 4.1 mph N6.6 kmh N 6.0 mph9.7 kmh 30.10 in1019.3 mb 0.00 in0.0 mm 0.00 in0.0 mm 0.00 in0.0 mm
04:51 AM 42.3°F5.7°C 36.5°F2.5°C 80% 1.3 mph 2.1 kmh 4.5 mph7.2 kmh 30.11 in1019.6 mb 0.00 in0.0 mm 0.00 in0.0 mm 0.00 in0.0 mm
04:56 AM 42.1°F5.6°C 36.4°F2.4°C 80% 1.7 mph 2.7 kmh 2.7 mph4.3 kmh 30.10 in1019.3 mb 0.00 in0.0 mm 0.00 in0.0 mm 0.00 in0.0 mm
05:02 AM 41.9°F5.5°C 36.2°F2.3°C 80% 2.0 mph 3.2 kmh 2.5 mph4.0 kmh 30.10 in1019.3 mb 0.00 in0.0 mm 0.00 in0.0 mm 0.00 in0.0 mm
05:07 AM 41.9°F5.5°C 36.2°F2.3°C 80% 1.9 mph ENE3.1 kmh ENE 2.5 mph4.0 kmh 30.11 in1019.6 mb 0.00 in0.0 mm 0.00 in0.0 mm 0.00 in0.0 mm
05:12 AM 41.9°F5.5°C 36.2°F2.3°C 80% 1.5 mph ESE2.4 kmh ESE 2.7 mph4.3 kmh 30.11 in1019.6 mb 0.00 in0.0 mm 0.00 in0.0 mm 0.00 in0.0 mm
05:17 AM 41.8°F5.4°C 36.3°F2.4°C 81% 0.8 mph ESE1.3 kmh ESE 2.7 mph4.3 kmh 30.11 in1019.6 mb 0.00 in0.0 mm 0.00 in0.0 mm 0.00 in0.0 mm
05:22 AM 41.8°F5.4°C 36.3°F2.4°C 81% 0.2 mph NW0.3 kmh NW 1.1 mph1.8 kmh 30.11 in1019.6 mb 0.00 in0.0 mm 0.00 in0.0 mm 0.00 in0.0 mm
05:27 AM 41.8°F5.4°C 36.3°F2.4°C 81% Calm Calm 1.1 mph1.8 kmh 30.11 in1019.6 mb 0.00 in0.0 mm 0.00 in0.0 mm 0.00 in0.0 mm
05:32 AM 41.8°F5.4°C 36.3°F2.4°C 81% 0.4 mph NW0.6 kmh NW 0.4 mph0.6 kmh 30.11 in1019.6 mb 0.00 in0.0 mm 0.00 in0.0 mm 0.00 in0.0 mm
05:37 AM 41.8°F5.4°C 36.3°F2.4°C 81% 0.7 mph NW1.1 kmh NW 1.1 mph1.8 kmh 30.11 in1019.6 mb 0.00 in0.0 mm 0.00 in0.0 mm 0.00 in0.0 mm
05:42 AM 41.8°F5.4°C 36.6°F2.6°C 82% Calm Calm 1.1 mph1.8 kmh 30.11 in1019.6 mb 0.00 in0.0 mm 0.00 in0.0 mm 0.00 in0.0 mm
05:47 AM 42.1°F5.6°C 37.0°F2.8°C 82% Calm Calm -- 30.11 in1019.6 mb 0.00 in0.0 mm 0.00 in0.0 mm 0.00 in0.0 mm
05:52 AM 42.8°F6.0°C 38.0°F3.3°C 83% Calm Calm -- 30.12 in1020.0 mb 0.00 in0.0 mm 0.00 in0.0 mm 0.00 in0.0 mm
05:57 AM 43.6°F6.4°C 38.7°F3.7°C 83% Calm Calm -- 30.12 in1020.0 mb 0.00 in0.0 mm 0.00 in0.0 mm 0.00 in0.0 mm
06:02 AM 43.9°F6.6°C 39.1°F3.9°C 83% Calm Calm -- 30.12 in1020.0 mb 0.00 in0.0 mm 0.00 in0.0 mm 0.00 in0.0 mm
06:07 AM 44.3°F6.8°C 39.4°F4.1°C 83% 0.8 mph NW1.3 kmh NW 1.6 mph2.6 kmh 30.12 in1020.0 mb 0.00 in0.0 mm 0.00 in0.0 mm 0.00 in0.0 mm
06:12 AM 44.6°F7.0°C 39.8°F4.3°C 83% 0.4 mph NW0.6 kmh NW 1.6 mph2.6 kmh 30.12 in1020.0 mb 0.00 in0.0 mm 0.00 in0.0 mm 0.00 in0.0 mm
06:17 AM 45.2°F7.3°C 40.3°F4.6°C 83% 1.4 mph NW2.3 kmh NW 1.6 mph2.6 kmh 30.12 in1020.0 mb 0.00 in0.0 mm 0.00 in0.0 mm 0.00 in0.0 mm
06:22 AM 45.9°F7.7°C 41.0°F5.0°C 83% 1.2 mph NW1.9 kmh NW 1.8 mph2.9 kmh 30.12 in1020.0 mb 0.00 in0.0 mm 0.00 in0.0 mm 0.00 in0.0 mm
06:27 AM 46.4°F8.0°C 41.3°F5.2°C 82% 1.2 mph NW1.9 kmh NW 1.8 mph2.9 kmh 30.12 in1020.0 mb 0.00 in0.0 mm 0.00 in0.0 mm 0.00 in0.0 mm
06:32 AM 47.0°F8.3°C 41.8°F5.4°C 82% 2.3 mph NNW3.7 kmh NNW 2.7 mph4.3 kmh 30.12 in1020.0 mb 0.00 in0.0 mm 0.00 in0.0 mm 0.00 in0.0 mm
06:37 AM 47.5°F8.6°C 41.9°F5.5°C 81% 1.9 mph 3.1 kmh 2.7 mph4.3 kmh 30.12 in1020.0 mb 0.00 in0.0 mm 0.00 in0.0 mm 0.00 in0.0 mm
06:42 AM 48.6°F9.2°C 43.3°F6.3°C 82% 1.1 mph NNE1.8 kmh NNE 2.5 mph4.0 kmh 30.12 in1020.0 mb 0.00 in0.0 mm 0.00 in0.0 mm 0.00 in0.0 mm
06:47 AM 49.9°F9.9°C 44.6°F7.0°C 82% 1.4 mph E2.3 kmh E 2.0 mph3.2 kmh 30.12 in1020.0 mb 0.00 in0.0 mm 0.00 in0.0 mm 0.00 in0.0 mm
06:52 AM 51.1°F10.6°C 45.5°F7.5°C 81% 1.4 mph NE2.3 kmh NE 2.0 mph3.2 kmh 30.12 in1020.0 mb 0.00 in0.0 mm 0.00 in0.0 mm 0.00 in0.0 mm
06:57 AM 52.0°F11.1°C 46.1°F7.8°C 80% 2.3 mph ENE3.7 kmh ENE 3.1 mph5.0 kmh 30.12 in1020.0 mb 0.00 in0.0 mm 0.00 in0.0 mm 0.00 in0.0 mm
07:02 AM 52.2°F11.2°C 45.5°F7.5°C 78% 1.2 mph E1.9 kmh E 3.1 mph5.0 kmh 30.13 in1020.3 mb 0.00 in0.0 mm 0.00 in0.0 mm 0.00 in0.0 mm
07:07 AM 52.6°F11.4°C 45.5°F7.5°C 77% 2.5 mph E4.0 kmh E 3.8 mph6.1 kmh 30.12 in1020.0 mb 0.00 in0.0 mm 0.00 in0.0 mm 0.00 in0.0 mm
07:12 AM 53.1°F11.7°C 46.1°F7.8°C 77% 2.9 mph ESE4.7 kmh ESE 3.8 mph6.1 kmh 30.12 in1020.0 mb 0.00 in0.0 mm 0.00 in0.0 mm 0.00 in0.0 mm
07:17 AM 53.5°F11.9°C 46.1°F7.8°C 76% 3.0 mph E4.8 kmh E 3.4 mph5.5 kmh 30.12 in1020.0 mb 0.00 in0.0 mm 0.00 in0.0 mm 0.00 in0.0 mm
07:22 AM 53.6°F12.0°C 45.9°F7.7°C 75% 2.2 mph NE3.5 kmh NE 4.0 mph6.4 kmh 30.13 in1020.3 mb 0.00 in0.0 mm 0.00 in0.0 mm 0.00 in0.0 mm
07:27 AM 53.5°F11.9°C 45.7°F7.6°C 75% 3.6 mph ENE5.8 kmh ENE 4.3 mph6.9 kmh 30.13 in1020.3 mb 0.00 in0.0 mm 0.00 in0.0 mm 0.00 in0.0 mm
07:32 AM 53.3°F11.8°C 44.8°F7.1°C 73% 3.3 mph NE5.3 kmh NE 4.3 mph6.9 kmh 30.13 in1020.3 mb 0.00 in0.0 mm 0.00 in0.0 mm 0.00 in0.0 mm
07:37 AM 53.5°F11.9°C 45.4°F7.4°C 74% 2.7 mph E4.3 kmh E 3.4 mph5.5 kmh 30.13 in1020.3 mb 0.00 in0.0 mm 0.00 in0.0 mm 0.00 in0.0 mm
07:42 AM 54.2°F12.3°C 46.1°F7.8°C 74% 2.9 mph E4.7 kmh E 3.8 mph6.1 kmh 30.13 in1020.3 mb 0.00 in0.0 mm 0.00 in0.0 mm 0.00 in0.0 mm
07:47 AM 54.7°F12.6°C 46.6°F8.1°C 74% 1.5 mph E2.4 kmh E 3.8 mph6.1 kmh 30.13 in1020.3 mb 0.00 in0.0 mm 0.00 in0.0 mm 0.00 in0.0 mm
07:52 AM 55.4°F13.0°C 46.9°F8.3°C 73% 2.7 mph ENE4.3 kmh ENE 3.4 mph5.5 kmh 30.13 in1020.3 mb 0.00 in0.0 mm 0.00 in0.0 mm 0.00 in0.0 mm
07:57 AM 56.3°F13.5°C 47.4°F8.6°C 72% 2.5 mph E4.0 kmh E 3.8 mph6.1 kmh 30.13 in1020.3 mb 0.00 in0.0 mm 0.00 in0.0 mm 0.00 in0.0 mm
08:03 AM 57.4°F14.1°C 48.4°F9.1°C 72% 2.8 mph ESE4.5 kmh ESE 3.8 mph6.1 kmh 30.13 in1020.3 mb 0.00 in0.0 mm 0.00 in0.0 mm 0.00 in0.0 mm
08:08 AM 58.3°F14.6°C 49.0°F9.4°C 71% 1.4 mph ESE2.3 kmh ESE 4.0 mph6.4 kmh 30.13 in1020.3 mb 0.00 in0.0 mm 0.00 in0.0 mm 0.00 in0.0 mm
08:13 AM 59.2°F15.1°C 49.5°F9.7°C 70% 2.3 mph ESE3.7 kmh ESE 4.0 mph6.4 kmh 30.13 in1020.3 mb 0.00 in0.0 mm 0.00 in0.0 mm 0.00 in0.0 mm
08:18 AM 59.6°F15.3°C 49.4°F9.7°C 69% 3.4 mph ESE5.5 kmh ESE 4.7 mph7.6 kmh 30.13 in1020.3 mb 0.00 in0.0 mm 0.00 in0.0 mm 0.00 in0.0 mm
08:23 AM 60.1°F15.6°C 49.6°F9.8°C 68% 2.7 mph ESE4.3 kmh ESE 4.7 mph7.6 kmh 30.13 in1020.3 mb 0.00 in0.0 mm 0.00 in0.0 mm 0.00 in0.0 mm
08:27 AM 60.5°F15.8°C 49.5°F9.7°C 67% 1.6 mph SE2.6 kmh SE 4.7 mph7.6 kmh 30.13 in1020.3 mb 0.00 in0.0 mm 0.00 in0.0 mm 0.00 in0.0 mm
08:32 AM 60.8°F16.0°C 49.5°F9.7°C 66% 1.1 mph SW1.8 kmh SW 3.6 mph5.8 kmh 30.13 in1020.3 mb 0.00 in0.0 mm 0.00 in0.0 mm 0.00 in0.0 mm
08:37 AM 61.2°F16.2°C 50.2°F10.1°C 67% 2.0 mph SE3.2 kmh SE 3.6 mph5.8 kmh 30.13 in1020.3 mb 0.00 in0.0 mm 0.00 in0.0 mm 0.00 in0.0 mm
08:42 AM 61.7°F16.5°C 51.1°F10.6°C 68% 3.3 mph SE5.3 kmh SE 3.8 mph6.1 kmh 30.13 in1020.3 mb 0.00 in0.0 mm 0.00 in0.0 mm 0.00 in0.0 mm
08:47 AM 63.0°F17.2°C 51.8°F11.0°C 67% 2.3 mph SE3.7 kmh SE 3.8 mph6.1 kmh 30.13 in1020.3 mb 0.00 in0.0 mm 0.00 in0.0 mm 0.00 in0.0 mm
08:52 AM 63.7°F17.6°C 51.7°F10.9°C 65% 1.5 mph S2.4 kmh S 3.4 mph5.5 kmh 30.13 in1020.3 mb 0.00 in0.0 mm 0.00 in0.0 mm 0.00 in0.0 mm
08:57 AM 64.3°F17.9°C 52.2°F11.2°C 65% 2.2 mph SE3.5 kmh SE 3.4 mph5.5 kmh 30.13 in1020.3 mb 0.00 in0.0 mm 0.00 in0.0 mm 0.00 in0.0 mm
09:03 AM 65.0°F18.3°C 52.0°F11.1°C 63% 1.9 mph E3.1 kmh E 2.9 mph4.7 kmh 30.13 in1020.3 mb 0.00 in0.0 mm 0.00 in0.0 mm 0.00 in0.0 mm
09:08 AM 65.2°F18.4°C 51.4°F10.8°C 61% 1.1 mph NE1.8 kmh NE 3.6 mph5.8 kmh 30.13 in1020.3 mb 0.00 in0.0 mm 0.00 in0.0 mm 0.00 in0.0 mm
09:13 AM 65.9°F18.8°C 52.1°F11.2°C 61% 2.0 mph ESE3.2 kmh ESE 3.6 mph5.8 kmh 30.13 in1020.3 mb 0.00 in0.0 mm 0.00 in0.0 mm 0.00 in0.0 mm
09:18 AM 66.8°F19.3°C 52.9°F11.6°C 61% 2.2 mph SW3.5 kmh SW 2.5 mph4.0 kmh 30.13 in1020.3 mb 0.00 in0.0 mm 0.00 in0.0 mm 0.00 in0.0 mm
09:23 AM 67.3°F19.6°C 52.5°F11.4°C 59% 1.5 mph SSE2.4 kmh SSE 2.5 mph4.0 kmh 30.13 in1020.3 mb 0.00 in0.0 mm 0.00 in0.0 mm 0.00 in0.0 mm
09:28 AM 68.0°F20.0°C 52.7°F11.5°C 58% 1.5 mph SSE2.4 kmh SSE 2.5 mph4.0 kmh 30.13 in1020.3 mb 0.00 in0.0 mm 0.00 in0.0 mm 0.00 in0.0 mm
09:33 AM 68.9°F20.5°C 53.0°F11.7°C 57% 1.6 mph SE2.6 kmh SE 3.1 mph5.0 kmh 30.12 in1020.0 mb 0.00 in0.0 mm 0.00 in0.0 mm 0.00 in0.0 mm
09:38 AM 69.8°F21.0°C 53.9°F12.2°C 57% 1.4 mph SE2.3 kmh SE 3.1 mph5.0 kmh 30.13 in1020.3 mb 0.00 in0.0 mm 0.00 in0.0 mm 0.00 in0.0 mm
09:43 AM 70.2°F21.2°C 53.3°F11.8°C 55% 2.3 mph S3.7 kmh S 2.9 mph4.7 kmh 30.12 in1020.0 mb 0.00 in0.0 mm 0.00 in0.0 mm 0.00 in0.0 mm
09:48 AM 70.4°F21.3°C 51.9°F11.1°C 52% 2.3 mph WSW3.7 kmh WSW 4.0 mph6.4 kmh 30.12 in1020.0 mb 0.00 in0.0 mm 0.00 in0.0 mm 0.00 in0.0 mm
09:52 AM 70.2°F21.2°C 51.8°F11.0°C 52% 1.9 mph W3.1 kmh W 4.0 mph6.4 kmh 30.12 in1020.0 mb 0.00 in0.0 mm 0.00 in0.0 mm 0.00 in0.0 mm
09:57 AM 70.6°F21.4°C 53.1°F11.7°C 54% 2.6 mph SW4.2 kmh SW 4.0 mph6.4 kmh 30.12 in1020.0 mb 0.00 in0.0 mm 0.00 in0.0 mm 0.00 in0.0 mm
10:03 AM 71.5°F21.9°C 53.4°F11.9°C 53% 1.6 mph SE2.6 kmh SE 2.9 mph4.7 kmh 30.12 in1020.0 mb 0.00 in0.0 mm 0.00 in0.0 mm 0.00 in0.0 mm
10:08 AM 72.4°F22.4°C 53.6°F12.0°C 52% 2.7 mph E4.3 kmh E 4.0 mph6.4 kmh 30.12 in1020.0 mb 0.00 in0.0 mm 0.00 in0.0 mm 0.00 in0.0 mm
10:13 AM 72.5°F22.5°C 52.2°F11.2°C 49% 2.3 mph NE3.7 kmh NE 4.3 mph6.9 kmh 30.12 in1020.0 mb 0.00 in0.0 mm 0.00 in0.0 mm 0.00 in0.0 mm
10:18 AM 72.7°F22.6°C 53.0°F11.7°C 50% 3.6 mph SW5.8 kmh SW 4.3 mph6.9 kmh 30.12 in1020.0 mb 0.00 in0.0 mm 0.00 in0.0 mm 0.00 in0.0 mm
10:23 AM 73.6°F23.1°C 53.2°F11.8°C 49% 3.2 mph SW5.1 kmh SW 3.8 mph6.1 kmh 30.12 in1020.0 mb 0.00 in0.0 mm 0.00 in0.0 mm 0.00 in0.0 mm
10:28 AM 73.4°F23.0°C 51.3°F10.7°C 46% 5.6 mph NW9.0 kmh NW 6.5 mph10.5 kmh 30.12 in1020.0 mb 0.00 in0.0 mm 0.00 in0.0 mm 0.00 in0.0 mm
10:33 AM 72.4°F22.4°C 50.3°F10.2°C 46% 2.8 mph W4.5 kmh W 6.5 mph10.5 kmh 30.12 in1020.0 mb 0.00 in0.0 mm 0.00 in0.0 mm 0.00 in0.0 mm
10:38 AM 72.9°F22.7°C 51.9°F11.1°C 48% 1.3 mph 2.1 kmh 6.5 mph10.5 kmh 30.12 in1020.0 mb 0.00 in0.0 mm 0.00 in0.0 mm 0.00 in0.0 mm
10:43 AM 73.4°F23.0°C 51.3°F10.7°C 46% 2.3 mph W3.7 kmh W 3.6 mph5.8 kmh 30.12 in1020.0 mb 0.00 in0.0 mm 0.00 in0.0 mm 0.00 in0.0 mm
10:48 AM 73.8°F23.2°C 52.2°F11.2°C 47% 1.9 mph SW3.1 kmh SW 3.6 mph5.8 kmh 30.11 in1019.6 mb 0.00 in0.0 mm 0.00 in0.0 mm 0.00 in0.0 mm
10:53 AM 75.2°F24.0°C 54.8°F12.7°C 49% 4.9 mph SSW7.9 kmh SSW 6.0 mph9.7 kmh 30.11 in1019.6 mb 0.00 in0.0 mm 0.00 in0.0 mm 0.00 in0.0 mm
10:58 AM 76.9°F24.9°C 55.1°F12.8°C 47% 2.1 mph ESE3.4 kmh ESE 6.0 mph9.7 kmh 30.11 in1019.6 mb 0.00 in0.0 mm 0.00 in0.0 mm 0.00 in0.0 mm
11:03 AM 77.0°F25.0°C 53.4°F11.9°C 44% 2.5 mph NE4.0 kmh NE 5.8 mph9.3 kmh 30.11 in1019.6 mb 0.00 in0.0 mm 0.00 in0.0 mm 0.00 in0.0 mm
11:08 AM 76.9°F24.9°C 52.0°F11.1°C 42% 6.3 mph WSW10.1 kmh WSW 6.5 mph10.5 kmh 30.11 in1019.6 mb 0.00 in0.0 mm 0.00 in0.0 mm 0.00 in0.0 mm
11:13 AM 77.0°F25.0°C 53.4°F11.9°C 44% 4.4 mph SSE7.1 kmh SSE 6.5 mph10.5 kmh 30.11 in1019.6 mb 0.00 in0.0 mm 0.00 in0.0 mm 0.00 in0.0 mm
11:18 AM 78.1°F25.6°C 54.4°F12.4°C 44% 2.2 mph SSW3.5 kmh SSW 5.4 mph8.7 kmh 30.11 in1019.6 mb 0.00 in0.0 mm 0.00 in0.0 mm 0.00 in0.0 mm
11:23 AM 78.5°F25.8°C 54.1°F12.3°C 43% 1.1 mph SSW1.8 kmh SSW 5.4 mph8.7 kmh 30.11 in1019.6 mb 0.00 in0.0 mm 0.00 in0.0 mm 0.00 in0.0 mm
11:28 AM 79.6°F26.4°C 55.6°F13.1°C 44% 2.2 mph S3.5 kmh S 4.0 mph6.4 kmh 30.10 in1019.3 mb 0.00 in0.0 mm 0.00 in0.0 mm 0.00 in0.0 mm
11:33 AM 80.3°F26.8°C 55.1°F12.8°C 42% 4.3 mph S6.9 kmh S 5.1 mph8.2 kmh 30.10 in1019.3 mb 0.00 in0.0 mm 0.00 in0.0 mm 0.00 in0.0 mm
11:38 AM 81.0°F27.2°C 55.7°F13.2°C 42% 2.7 mph S4.3 kmh S 8.3 mph13.4 kmh 30.10 in1019.3 mb 0.00 in0.0 mm 0.00 in0.0 mm 0.00 in0.0 mm
11:43 AM 81.2°F27.3°C 54.6°F12.6°C 40% 3.0 mph WSW4.8 kmh WSW 8.3 mph13.4 kmh 30.10 in1019.3 mb 0.00 in0.0 mm 0.00 in0.0 mm 0.00 in0.0 mm
11:48 AM 81.0°F27.2°C 54.6°F12.6°C 40% 2.1 mph ENE3.4 kmh ENE 7.8 mph12.6 kmh 30.10 in1019.3 mb 0.00 in0.0 mm 0.00 in0.0 mm 0.00 in0.0 mm
11:53 AM 80.5°F26.9°C 52.5°F11.4°C 38% 4.7 mph ESE7.6 kmh ESE 7.8 mph12.6 kmh 30.10 in1019.3 mb 0.00 in0.0 mm 0.00 in0.0 mm 0.00 in0.0 mm
11:58 AM 80.3°F26.8°C 53.1°F11.7°C 39% 5.1 mph SW8.2 kmh SW 7.2 mph11.6 kmh 30.10 in1019.3 mb 0.00 in0.0 mm 0.00 in0.0 mm 0.00 in0.0 mm
12:04 PM 80.6°F27.0°C 54.2°F12.3°C 40% 3.6 mph SSE5.8 kmh SSE 7.2 mph11.6 kmh 30.10 in1019.3 mb 0.00 in0.0 mm 0.00 in0.0 mm 0.00 in0.0 mm
12:08 PM 81.7°F27.6°C 55.2°F12.9°C 40% 2.6 mph SE4.2 kmh SE 7.2 mph11.6 kmh 30.10 in1019.3 mb 0.00 in0.0 mm 0.00 in0.0 mm 0.00 in0.0 mm
12:13 PM 81.7°F27.6°C 52.0°F11.1°C 36% 6.4 mph SSW10.3 kmh SSW 8.9 mph14.3 kmh 30.09 in1019.0 mb 0.00 in0.0 mm 0.00 in0.0 mm 0.00 in0.0 mm
12:18 PM 81.4°F27.4°C 52.5°F11.4°C 37% 8.3 mph SSE13.4 kmh SSE 10.3 mph16.6 kmh 30.09 in1019.0 mb 0.00 in0.0 mm 0.00 in0.0 mm 0.00 in0.0 mm
12:23 PM 82.3°F27.9°C 52.5°F11.4°C 36% 7.3 mph WSW11.7 kmh WSW 10.3 mph16.6 kmh 30.09 in1019.0 mb 0.00 in0.0 mm 0.00 in0.0 mm 0.00 in0.0 mm
12:28 PM 81.9°F27.7°C 49.8°F9.9°C 33% 8.6 mph SW13.8 kmh SW 11.4 mph18.3 kmh 30.09 in1019.0 mb 0.00 in0.0 mm 0.00 in0.0 mm 0.00 in0.0 mm
12:33 PM 80.6°F27.0°C 48.0°F8.9°C 32% 9.8 mph S15.8 kmh S 13.9 mph22.4 kmh 30.09 in1019.0 mb 0.00 in0.0 mm 0.00 in0.0 mm 0.00 in0.0 mm
12:38 PM 81.2°F27.3°C 49.2°F9.6°C 33% 8.5 mph SW13.7 kmh SW 13.9 mph22.4 kmh 30.09 in1019.0 mb 0.00 in0.0 mm 0.00 in0.0 mm 0.00 in0.0 mm
12:43 PM 81.9°F27.7°C 50.6°F10.3°C 34% 5.4 mph SE8.7 kmh SE 11.2 mph18.0 kmh 30.08 in1018.6 mb 0.00 in0.0 mm 0.00 in0.0 mm 0.00 in0.0 mm
12:48 PM 82.8°F28.2°C 51.4°F10.8°C 34% 9.7 mph SSW15.6 kmh SSW 11.2 mph18.0 kmh 30.08 in1018.6 mb 0.00 in0.0 mm 0.00 in0.0 mm 0.00 in0.0 mm
12:53 PM 83.0°F28.3°C 50.8°F10.4°C 33% 9.5 mph SSW15.3 kmh SSW 12.8 mph20.6 kmh 30.08 in1018.6 mb 0.00 in0.0 mm 0.00 in0.0 mm 0.00 in0.0 mm
12:58 PM 82.4°F28.0°C 49.5°F9.7°C 32% 8.6 mph SW13.8 kmh SW 13.6 mph21.9 kmh 30.08 in1018.6 mb 0.00 in0.0 mm 0.00 in0.0 mm 0.00 in0.0 mm
01:04 PM 82.6°F28.1°C 49.6°F9.8°C 32% 8.1 mph SW13.0 kmh SW 13.6 mph21.9 kmh 30.08 in1018.6 mb 0.00 in0.0 mm 0.00 in0.0 mm 0.00 in0.0 mm
01:09 PM 82.6°F28.1°C 48.9°F9.4°C 31% 11.2 mph SW18.0 kmh SW 14.8 mph23.8 kmh 30.07 in1018.3 mb 0.00 in0.0 mm 0.00 in0.0 mm 0.00 in0.0 mm
01:14 PM 82.4°F28.0°C 49.5°F9.7°C 32% 6.3 mph SW10.1 kmh SW 14.8 mph23.8 kmh 30.07 in1018.3 mb 0.00 in0.0 mm 0.00 in0.0 mm 0.00 in0.0 mm
01:19 PM 82.3°F27.9°C 49.3°F9.6°C 32% 7.8 mph S12.6 kmh S 12.5 mph20.1 kmh 30.07 in1018.3 mb 0.00 in0.0 mm 0.00 in0.0 mm 0.00 in0.0 mm
01:24 PM 82.8°F28.2°C 48.3°F9.1°C 30% 12.0 mph SW19.3 kmh SW 16.8 mph27.0 kmh 30.07 in1018.3 mb 0.00 in0.0 mm 0.00 in0.0 mm 0.00 in0.0 mm
01:29 PM 81.7°F27.6°C 48.1°F8.9°C 31% 5.7 mph SSW9.2 kmh SSW 16.8 mph27.0 kmh 30.07 in1018.3 mb 0.00 in0.0 mm 0.00 in0.0 mm 0.00 in0.0 mm
01:34 PM 81.5°F27.5°C 48.0°F8.9°C 31% 10.3 mph SW16.6 kmh SW 14.3 mph23.0 kmh 30.07 in1018.3 mb 0.00 in0.0 mm 0.00 in0.0 mm 0.00 in0.0 mm
01:38 PM 81.4°F27.4°C 46.0°F7.8°C 29% 14.2 mph SW22.9 kmh SW 17.7 mph28.5 kmh 30.07 in1018.3 mb 0.00 in0.0 mm 0.00 in0.0 mm 0.00 in0.0 mm
01:43 PM 80.3°F26.8°C 46.1°F7.8°C 30% 9.3 mph SW15.0 kmh SW 17.7 mph28.5 kmh 30.07 in1018.3 mb 0.00 in0.0 mm 0.00 in0.0 mm 0.00 in0.0 mm
01:48 PM 79.6°F26.4°C 45.5°F7.5°C 30% 12.6 mph SW20.3 kmh SW 15.0 mph24.1 kmh 30.06 in1017.9 mb 0.00 in0.0 mm 0.00 in0.0 mm 0.00 in0.0 mm
01:53 PM 79.6°F26.4°C 45.5°F7.5°C 30% 14.1 mph WSW22.7 kmh WSW 19.5 mph31.4 kmh 30.07 in1018.3 mb 0.00 in0.0 mm 0.00 in0.0 mm 0.00 in0.0 mm
01:58 PM 80.5°F26.9°C 46.3°F7.9°C 30% 5.8 mph WSW9.3 kmh WSW 19.5 mph31.4 kmh 30.06 in1017.9 mb 0.00 in0.0 mm 0.00 in0.0 mm 0.00 in0.0 mm
02:04 PM 81.0°F27.2°C 47.5°F8.6°C 31% 8.3 mph SSW13.4 kmh SSW 13.0 mph20.9 kmh 30.06 in1017.9 mb 0.00 in0.0 mm 0.00 in0.0 mm 0.00 in0.0 mm
02:09 PM 82.3°F27.9°C 46.7°F8.2°C 29% 11.9 mph WSW19.2 kmh WSW 12.5 mph20.1 kmh 30.06 in1017.9 mb 0.00 in0.0 mm 0.00 in0.0 mm 0.00 in0.0 mm
02:14 PM 80.8°F27.1°C 42.4°F5.8°C 26% 11.6 mph WSW18.7 kmh WSW 14.8 mph23.8 kmh 30.06 in1017.9 mb 0.00 in0.0 mm 0.00 in0.0 mm 0.00 in0.0 mm
02:19 PM 80.1°F26.7°C 46.0°F7.8°C 30% 5.1 mph WSW8.2 kmh WSW 14.8 mph23.8 kmh 30.06 in1017.9 mb 0.00 in0.0 mm 0.00 in0.0 mm 0.00 in0.0 mm
02:24 PM 80.3°F26.8°C 41.9°F5.5°C 26% 11.2 mph WSW18.0 kmh WSW 17.0 mph27.4 kmh 30.05 in1017.6 mb 0.00 in0.0 mm 0.00 in0.0 mm 0.00 in0.0 mm
02:29 PM 79.9°F26.6°C 43.8°F6.6°C 28% 9.4 mph W15.1 kmh W 17.0 mph27.4 kmh 30.05 in1017.6 mb 0.00 in0.0 mm 0.00 in0.0 mm 0.00 in0.0 mm
02:34 PM 80.6°F27.0°C 45.4°F7.4°C 29% 11.3 mph SW18.2 kmh SW 12.8 mph20.6 kmh 30.05 in1017.6 mb 0.00 in0.0 mm 0.00 in0.0 mm 0.00 in0.0 mm
02:39 PM 81.4°F27.4°C 46.0°F7.8°C 29% 13.1 mph SW21.1 kmh SW 13.9 mph22.4 kmh 30.05 in1017.6 mb 0.00 in0.0 mm 0.00 in0.0 mm 0.00 in0.0 mm
02:44 PM 82.1°F27.8°C 45.6°F7.6°C 28% 13.3 mph SW21.4 kmh SW 14.5 mph23.3 kmh 30.05 in1017.6 mb 0.00 in0.0 mm 0.00 in0.0 mm 0.00 in0.0 mm
02:49 PM 81.4°F27.4°C 44.9°F7.2°C 28% 14.4 mph WSW23.2 kmh WSW 15.7 mph25.3 kmh 30.05 in1017.6 mb 0.00 in0.0 mm 0.00 in0.0 mm 0.00 in0.0 mm
02:54 PM 79.7°F26.5°C 41.5°F5.3°C 26% 12.9 mph W20.8 kmh W 16.1 mph25.9 kmh 30.05 in1017.6 mb 0.00 in0.0 mm 0.00 in0.0 mm 0.00 in0.0 mm
02:59 PM 78.5°F25.8°C 42.5°F5.8°C 28% 5.5 mph WSW8.9 kmh WSW 16.1 mph25.9 kmh 30.05 in1017.6 mb 0.00 in0.0 mm 0.00 in0.0 mm 0.00 in0.0 mm
03:04 PM 78.5°F25.8°C 44.6°F7.0°C 30% 10.2 mph SW16.4 kmh SW 12.1 mph19.5 kmh 30.04 in1017.3 mb 0.00 in0.0 mm 0.00 in0.0 mm 0.00 in0.0 mm
03:09 PM 79.9°F26.6°C 45.8°F7.7°C 30% 13.1 mph WSW21.1 kmh WSW 16.8 mph27.0 kmh 30.04 in1017.3 mb 0.00 in0.0 mm 0.00 in0.0 mm 0.00 in0.0 mm
03:14 PM 81.2°F27.3°C 46.9°F8.3°C 30% 10.6 mph S17.1 kmh S 16.8 mph27.0 kmh 30.04 in1017.3 mb 0.00 in0.0 mm 0.00 in0.0 mm 0.00 in0.0 mm
03:19 PM 81.9°F27.7°C 43.3°F6.3°C 26% 14.4 mph WSW23.2 kmh WSW 16.6 mph26.7 kmh 30.04 in1017.3 mb 0.00 in0.0 mm 0.00 in0.0 mm 0.00 in0.0 mm
03:24 PM 81.4°F27.4°C 44.9°F7.2°C 28% 8.1 mph SW13.0 kmh SW 16.6 mph26.7 kmh 30.04 in1017.3 mb 0.00 in0.0 mm 0.00 in0.0 mm 0.00 in0.0 mm
03:29 PM 81.7°F27.6°C 45.2°F7.3°C 28% 11.1 mph WSW17.9 kmh WSW 15.7 mph25.3 kmh 30.04 in1017.3 mb 0.00 in0.0 mm 0.00 in0.0 mm 0.00 in0.0 mm
03:34 PM 81.7°F27.6°C 43.1°F6.2°C 26% 12.1 mph WSW19.5 kmh WSW 15.7 mph25.3 kmh 30.04 in1017.3 mb 0.00 in0.0 mm 0.00 in0.0 mm 0.00 in0.0 mm
03:39 PM 80.6°F27.0°C 42.3°F5.7°C 26% 10.1 mph W16.3 kmh W 12.8 mph20.6 kmh 30.04 in1017.3 mb 0.00 in0.0 mm 0.00 in0.0 mm 0.00 in0.0 mm
03:44 PM 78.8°F26.0°C 42.8°F6.0°C 28% 9.6 mph W15.4 kmh W 12.3 mph19.8 kmh 30.03 in1016.9 mb 0.00 in0.0 mm 0.00 in0.0 mm 0.00 in0.0 mm
03:49 PM 77.9°F25.5°C 43.0°F6.1°C 29% 10.6 mph WSW17.1 kmh WSW 13.4 mph21.6 kmh 30.04 in1017.3 mb 0.00 in0.0 mm 0.00 in0.0 mm 0.00 in0.0 mm
03:54 PM 78.5°F25.8°C 44.6°F7.0°C 30% 11.0 mph SW17.7 kmh SW 18.8 mph30.3 kmh 30.04 in1017.3 mb 0.00 in0.0 mm 0.00 in0.0 mm 0.00 in0.0 mm
04:00 PM 79.6°F26.4°C 44.5°F6.9°C 29% 8.6 mph SW13.8 kmh SW 18.8 mph30.3 kmh 30.03 in1016.9 mb 0.00 in0.0 mm 0.00 in0.0 mm 0.00 in0.0 mm
04:05 PM 80.3°F26.8°C 44.0°F6.7°C 28% 8.6 mph WSW13.8 kmh WSW 15.2 mph24.5 kmh 30.03 in1016.9 mb 0.00 in0.0 mm 0.00 in0.0 mm 0.00 in0.0 mm
04:09 PM 80.1°F26.7°C 43.8°F6.6°C 28% 5.8 mph SW9.3 kmh SW 12.1 mph19.5 kmh 30.03 in1016.9 mb 0.00 in0.0 mm 0.00 in0.0 mm 0.00 in0.0 mm
04:14 PM 79.6°F26.4°C 41.3°F5.2°C 26% 9.4 mph WSW15.1 kmh WSW 11.2 mph18.0 kmh 30.03 in1016.9 mb 0.00 in0.0 mm 0.00 in0.0 mm 0.00 in0.0 mm
04:19 PM 79.6°F26.4°C 41.3°F5.2°C 26% 13.6 mph SW21.9 kmh SW 15.4 mph24.8 kmh 30.02 in1016.6 mb 0.00 in0.0 mm 0.00 in0.0 mm 0.00 in0.0 mm
04:24 PM 79.6°F26.4°C 43.4°F6.3°C 28% 8.1 mph SW13.0 kmh SW 15.4 mph24.8 kmh 30.02 in1016.6 mb 0.00 in0.0 mm 0.00 in0.0 mm 0.00 in0.0 mm
04:29 PM 79.6°F26.4°C 41.3°F5.2°C 26% 14.9 mph WSW24.0 kmh WSW 15.2 mph24.5 kmh 30.02 in1016.6 mb 0.00 in0.0 mm 0.00 in0.0 mm 0.00 in0.0 mm
04:34 PM 78.8°F26.0°C 40.7°F4.8°C 26% 13.6 mph WSW21.9 kmh WSW 15.2 mph24.5 kmh 30.02 in1016.6 mb 0.00 in0.0 mm 0.00 in0.0 mm 0.00 in0.0 mm
04:39 PM 78.3°F25.7°C 40.2°F4.6°C 26% 11.8 mph SW19.0 kmh SW 16.3 mph26.2 kmh 30.02 in1016.6 mb 0.00 in0.0 mm 0.00 in0.0 mm 0.00 in0.0 mm
04:44 PM 78.1°F25.6°C 42.1°F5.6°C 28% 8.6 mph WSW13.8 kmh WSW 16.3 mph26.2 kmh 30.02 in1016.6 mb 0.00 in0.0 mm 0.00 in0.0 mm 0.00 in0.0 mm
04:49 PM 78.3°F25.7°C 40.2°F4.6°C 26% 15.0 mph WSW24.1 kmh WSW 15.7 mph25.3 kmh 30.02 in1016.6 mb 0.00 in0.0 mm 0.00 in0.0 mm 0.00 in0.0 mm
04:54 PM 78.1°F25.6°C 39.1°F3.9°C 25% 15.3 mph W24.6 kmh W 20.1 mph32.3 kmh 30.02 in1016.6 mb 0.00 in0.0 mm 0.00 in0.0 mm 0.00 in0.0 mm
05:00 PM 77.8°F25.4°C 39.8°F4.3°C 26% 12.4 mph WSW20.0 kmh WSW 20.1 mph32.3 kmh 30.02 in1016.6 mb 0.00 in0.0 mm 0.00 in0.0 mm 0.00 in0.0 mm
05:05 PM 77.0°F25.0°C 39.3°F4.1°C 26% 10.6 mph SW17.1 kmh SW 17.9 mph28.8 kmh 30.02 in1016.6 mb 0.00 in0.0 mm 0.00 in0.0 mm 0.00 in0.0 mm
05:10 PM 77.4°F25.2°C 41.6°F5.3°C 28% 13.0 mph WSW20.9 kmh WSW 14.3 mph23.0 kmh 30.02 in1016.6 mb 0.00 in0.0 mm 0.00 in0.0 mm 0.00 in0.0 mm
05:15 PM 78.1°F25.6°C 40.1°F4.5°C 26% 12.6 mph W20.3 kmh W 13.9 mph22.4 kmh 30.02 in1016.6 mb 0.00 in0.0 mm 0.00 in0.0 mm 0.00 in0.0 mm
05:20 PM 77.9°F25.5°C 41.0°F5.0°C 27% 11.6 mph WSW18.7 kmh WSW 12.8 mph20.6 kmh 30.02 in1016.6 mb 0.00 in0.0 mm 0.00 in0.0 mm 0.00 in0.0 mm
05:25 PM 77.2°F25.1°C 39.3°F4.1°C 26% 15.2 mph WSW24.5 kmh WSW 15.9 mph25.6 kmh 30.02 in1016.6 mb 0.00 in0.0 mm 0.00 in0.0 mm 0.00 in0.0 mm
05:30 PM 76.5°F24.7°C 38.7°F3.7°C 26% 12.4 mph SW20.0 kmh SW 15.9 mph25.6 kmh 30.02 in1016.6 mb 0.00 in0.0 mm 0.00 in0.0 mm 0.00 in0.0 mm
05:35 PM 76.3°F24.6°C 38.6°F3.7°C 26% 9.1 mph NW14.6 kmh NW 14.5 mph23.3 kmh 30.02 in1016.6 mb 0.00 in0.0 mm 0.00 in0.0 mm 0.00 in0.0 mm
05:39 PM 76.0°F24.4°C 38.3°F3.5°C 26% 7.3 mph W11.7 kmh W 12.3 mph19.8 kmh 30.02 in1016.6 mb 0.00 in0.0 mm 0.00 in0.0 mm 0.00 in0.0 mm
05:44 PM 76.0°F24.4°C 41.4°F5.2°C 29% 7.3 mph SW11.7 kmh SW 10.7 mph17.2 kmh 30.02 in1016.6 mb 0.00 in0.0 mm 0.00 in0.0 mm 0.00 in0.0 mm
05:49 PM 76.3°F24.6°C 41.7°F5.4°C 29% 4.7 mph SW7.6 kmh SW 8.1 mph13.0 kmh 30.02 in1016.6 mb 0.00 in0.0 mm 0.00 in0.0 mm 0.00 in0.0 mm
05:54 PM 76.7°F24.8°C 42.0°F5.6°C 29% 5.4 mph SW8.7 kmh SW 7.6 mph12.2 kmh 30.02 in1016.6 mb 0.00 in0.0 mm 0.00 in0.0 mm 0.00 in0.0 mm
06:00 PM 76.7°F24.8°C 41.0°F5.0°C 28% 10.8 mph WSW17.4 kmh WSW 13.2 mph21.2 kmh 30.02 in1016.6 mb 0.00 in0.0 mm 0.00 in0.0 mm 0.00 in0.0 mm
06:05 PM 76.3°F24.6°C 40.7°F4.8°C 28% 9.6 mph WSW15.4 kmh WSW 13.2 mph21.2 kmh 30.02 in1016.6 mb 0.00 in0.0 mm 0.00 in0.0 mm 0.00 in0.0 mm
06:10 PM 75.6°F24.2°C 40.1°F4.5°C 28% 11.1 mph WSW17.9 kmh WSW 14.5 mph23.3 kmh 30.02 in1016.6 mb 0.00 in0.0 mm 0.00 in0.0 mm 0.00 in0.0 mm
06:15 PM 74.5°F23.6°C 40.1°F4.5°C 29% 11.5 mph SW18.5 kmh SW 14.5 mph23.3 kmh 30.02 in1016.6 mb 0.00 in0.0 mm 0.00 in0.0 mm 0.00 in0.0 mm
06:20 PM 73.8°F23.2°C 39.4°F4.1°C 29% 7.6 mph WSW12.2 kmh WSW 12.1 mph19.5 kmh 30.02 in1016.6 mb 0.00 in0.0 mm 0.00 in0.0 mm 0.00 in0.0 mm
06:25 PM 73.1°F22.8°C 40.6°F4.8°C 31% 7.5 mph WSW12.1 kmh WSW 10.1 mph16.3 kmh 30.02 in1016.6 mb 0.00 in0.0 mm 0.00 in0.0 mm 0.00 in0.0 mm
06:30 PM 73.1°F22.8°C 40.6°F4.8°C 31% 7.9 mph WSW12.7 kmh WSW 9.4 mph15.1 kmh 30.02 in1016.6 mb 0.00 in0.0 mm 0.00 in0.0 mm 0.00 in0.0 mm
06:35 PM 73.8°F23.2°C 41.9°F5.5°C 32% 6.3 mph W10.1 kmh W 10.3 mph16.6 kmh 30.02 in1016.6 mb 0.00 in0.0 mm 0.00 in0.0 mm 0.00 in0.0 mm
06:40 PM 73.8°F23.2°C 40.5°F4.7°C 30% 11.0 mph WNW17.7 kmh WNW 13.4 mph21.6 kmh 30.02 in1016.6 mb 0.00 in0.0 mm 0.00 in0.0 mm 0.00 in0.0 mm
06:45 PM 73.3°F22.9°C 40.0°F4.4°C 30% 18.7 mph W30.1 kmh W 18.8 mph30.3 kmh 30.03 in1016.9 mb 0.00 in0.0 mm 0.00 in0.0 mm 0.00 in0.0 mm
06:50 PM 72.5°F22.5°C 39.4°F4.1°C 30% 16.2 mph W26.1 kmh W 18.8 mph30.3 kmh 30.03 in1016.9 mb 0.00 in0.0 mm 0.00 in0.0 mm 0.00 in0.0 mm
06:55 PM 72.0°F22.2°C 39.0°F3.9°C 30% 12.8 mph W20.6 kmh W 17.4 mph28.0 kmh 30.03 in1016.9 mb 0.00 in0.0 mm 0.00 in0.0 mm 0.00 in0.0 mm
07:00 PM 71.8°F22.1°C 39.6°F4.2°C 31% 12.5 mph WSW20.1 kmh WSW 17.4 mph28.0 kmh 30.04 in1017.3 mb 0.00 in0.0 mm 0.00 in0.0 mm 0.00 in0.0 mm
07:05 PM 71.6°F22.0°C 40.1°F4.5°C 32% 8.9 mph SW14.3 kmh SW 13.9 mph22.4 kmh 30.04 in1017.3 mb 0.00 in0.0 mm 0.00 in0.0 mm 0.00 in0.0 mm
07:10 PM 71.5°F21.9°C 40.1°F4.5°C 32% 6.9 mph SSW11.1 kmh SSW 13.2 mph21.2 kmh 30.04 in1017.3 mb 0.00 in0.0 mm 0.00 in0.0 mm 0.00 in0.0 mm
07:15 PM 71.6°F22.0°C 41.0°F5.0°C 33% 13.6 mph S21.9 kmh S 14.3 mph23.0 kmh 30.04 in1017.3 mb 0.00 in0.0 mm 0.00 in0.0 mm 0.00 in0.0 mm
07:20 PM 71.6°F22.0°C 41.0°F5.0°C 33% 9.3 mph S15.0 kmh S 15.2 mph24.5 kmh 30.04 in1017.3 mb 0.00 in0.0 mm 0.00 in0.0 mm 0.00 in0.0 mm
07:25 PM 71.3°F21.8°C 40.6°F4.8°C 33% 7.1 mph S11.4 kmh S 15.2 mph24.5 kmh 30.04 in1017.3 mb 0.00 in0.0 mm 0.00 in0.0 mm 0.00 in0.0 mm
07:30 PM 71.3°F21.8°C 41.3°F5.2°C 34% 2.8 mph SSE4.5 kmh SSE 13.0 mph20.9 kmh 30.04 in1017.3 mb 0.00 in0.0 mm 0.00 in0.0 mm 0.00 in0.0 mm
07:35 PM 71.6°F22.0°C 40.1°F4.5°C 32% 3.6 mph WSW5.8 kmh WSW 10.5 mph16.9 kmh 30.04 in1017.3 mb 0.00 in0.0 mm 0.00 in0.0 mm 0.00 in0.0 mm
07:40 PM 71.6°F22.0°C 39.4°F4.1°C 31% 2.9 mph N4.7 kmh N 10.5 mph16.9 kmh 30.04 in1017.3 mb 0.00 in0.0 mm 0.00 in0.0 mm 0.00 in0.0 mm
07:45 PM 71.5°F21.9°C 39.2°F4.0°C 31% 5.1 mph WSW8.2 kmh WSW 6.3 mph10.1 kmh 30.04 in1017.3 mb 0.00 in0.0 mm 0.00 in0.0 mm 0.00 in0.0 mm
07:50 PM 71.3°F21.8°C 39.9°F4.4°C 32% 2.9 mph WSW4.7 kmh WSW 6.3 mph10.1 kmh 30.04 in1017.3 mb 0.00 in0.0 mm 0.00 in0.0 mm 0.00 in0.0 mm
07:55 PM 70.9°F21.6°C 39.5°F4.2°C 32% 3.6 mph WSW5.8 kmh WSW 4.0 mph6.4 kmh 30.04 in1017.3 mb 0.00 in0.0 mm 0.00 in0.0 mm 0.00 in0.0 mm
08:00 PM 70.6°F21.4°C 39.3°F4.1°C 32% 2.1 mph WSW3.4 kmh WSW 4.0 mph6.4 kmh 30.04 in1017.3 mb 0.00 in0.0 mm 0.00 in0.0 mm 0.00 in0.0 mm
08:05 PM 70.2°F21.2°C 38.9°F3.8°C 32% 1.5 mph WSW2.4 kmh WSW 3.4 mph5.5 kmh 30.04 in1017.3 mb 0.00 in0.0 mm 0.00 in0.0 mm 0.00 in0.0 mm
08:10 PM 70.0°F21.1°C 39.4°F4.1°C 33% Calm Calm 3.4 mph5.5 kmh 30.04 in1017.3 mb 0.00 in0.0 mm 0.00 in0.0 mm 0.00 in0.0 mm
08:15 PM 69.5°F20.8°C 39.0°F3.9°C 33% 3.1 mph SW5.0 kmh SW 3.1 mph5.0 kmh 30.05 in1017.6 mb 0.00 in0.0 mm 0.00 in0.0 mm 0.00 in0.0 mm
08:20 PM 68.8°F20.4°C 39.1°F3.9°C 34% 1.3 mph SW2.1 kmh SW 4.5 mph7.2 kmh 30.05 in1017.6 mb 0.00 in0.0 mm 0.00 in0.0 mm 0.00 in0.0 mm
08:25 PM 68.2°F20.1°C 39.3°F4.1°C 35% 1.0 mph SW1.6 kmh SW 4.5 mph7.2 kmh 30.05 in1017.6 mb 0.00 in0.0 mm 0.00 in0.0 mm 0.00 in0.0 mm
08:30 PM 67.9°F19.9°C 39.7°F4.3°C 36% 2.2 mph NNW3.5 kmh NNW 2.2 mph3.5 kmh 30.05 in1017.6 mb 0.00 in0.0 mm 0.00 in0.0 mm 0.00 in0.0 mm
08:35 PM 67.0°F19.4°C 39.7°F4.3°C 37% 2.3 mph NNW3.7 kmh NNW 2.7 mph4.3 kmh 30.05 in1017.6 mb 0.00 in0.0 mm 0.00 in0.0 mm 0.00 in0.0 mm
08:40 PM 66.2°F19.0°C 39.1°F3.9°C 37% 1.2 mph NNW1.9 kmh NNW 2.7 mph4.3 kmh 30.05 in1017.6 mb 0.00 in0.0 mm 0.00 in0.0 mm 0.00 in0.0 mm
08:45 PM 65.9°F18.8°C 38.7°F3.7°C 37% 3.1 mph 5.0 kmh 3.4 mph5.5 kmh 30.05 in1017.6 mb 0.00 in0.0 mm 0.00 in0.0 mm 0.00 in0.0 mm
08:50 PM 65.2°F18.4°C 39.5°F4.2°C 39% 3.7 mph 6.0 kmh 4.0 mph6.4 kmh 30.05 in1017.6 mb 0.00 in0.0 mm 0.00 in0.0 mm 0.00 in0.0 mm
08:55 PM 63.9°F17.7°C 40.2°F4.6°C 42% 7.5 mph N12.1 kmh N 8.5 mph13.7 kmh 30.06 in1017.9 mb 0.00 in0.0 mm 0.00 in0.0 mm 0.00 in0.0 mm
09:01 PM 63.0°F17.2°C 41.8°F5.4°C 46% 9.7 mph N15.6 kmh N 11.4 mph18.3 kmh 30.06 in1017.9 mb 0.00 in0.0 mm 0.00 in0.0 mm 0.00 in0.0 mm
09:06 PM 62.6°F17.0°C 41.4°F5.2°C 46% 8.1 mph 13.0 kmh 11.4 mph18.3 kmh 30.06 in1017.9 mb 0.00 in0.0 mm 0.00 in0.0 mm 0.00 in0.0 mm
09:11 PM 62.3°F16.8°C 41.1°F5.1°C 46% 6.2 mph 10.0 kmh 9.2 mph14.8 kmh 30.06 in1017.9 mb 0.00 in0.0 mm 0.00 in0.0 mm 0.00 in0.0 mm
09:16 PM 62.3°F16.8°C 41.1°F5.1°C 46% 2.5 mph 4.0 kmh 7.6 mph12.2 kmh 30.06 in1017.9 mb 0.00 in0.0 mm 0.00 in0.0 mm 0.00 in0.0 mm
09:21 PM 62.1°F16.7°C 41.0°F5.0°C 46% 2.2 mph N3.5 kmh N 4.0 mph6.4 kmh 30.07 in1018.3 mb 0.00 in0.0 mm 0.00 in0.0 mm 0.00 in0.0 mm
09:25 PM 61.9°F16.6°C 40.8°F4.9°C 46% 3.1 mph N5.0 kmh N 3.4 mph5.5 kmh 30.07 in1018.3 mb 0.00 in0.0 mm 0.00 in0.0 mm 0.00 in0.0 mm
09:30 PM 61.6°F16.4°C 40.5°F4.7°C 46% 4.6 mph ENE7.4 kmh ENE 5.4 mph8.7 kmh 30.07 in1018.3 mb 0.00 in0.0 mm 0.00 in0.0 mm 0.00 in0.0 mm
09:35 PM 61.6°F16.4°C 40.5°F4.7°C 46% 4.1 mph SE6.6 kmh SE 5.6 mph9.0 kmh 30.07 in1018.3 mb 0.00 in0.0 mm 0.00 in0.0 mm 0.00 in0.0 mm
09:40 PM 61.6°F16.4°C 40.5°F4.7°C 46% 4.1 mph SE6.6 kmh SE 5.6 mph9.0 kmh 30.07 in1018.3 mb 0.00 in0.0 mm 0.00 in0.0 mm 0.00 in0.0 mm
09:45 PM 61.4°F16.3°C 40.9°F4.9°C 47% 3.6 mph E5.8 kmh E 4.7 mph7.6 kmh 30.07 in1018.3 mb 0.00 in0.0 mm 0.00 in0.0 mm 0.00 in0.0 mm
09:50 PM 61.2°F16.2°C 40.7°F4.8°C 47% 2.3 mph ESE3.7 kmh ESE 4.7 mph7.6 kmh 30.07 in1018.3 mb 0.00 in0.0 mm 0.00 in0.0 mm 0.00 in0.0 mm
09:55 PM 60.8°F16.0°C 40.4°F4.7°C 47% 3.5 mph ESE5.6 kmh ESE 4.0 mph6.4 kmh 30.07 in1018.3 mb 0.00 in0.0 mm 0.00 in0.0 mm 0.00 in0.0 mm
10:01 PM 60.5°F15.8°C 40.7°F4.8°C 48% 2.4 mph E3.9 kmh E 3.6 mph5.8 kmh 30.07 in1018.3 mb 0.00 in0.0 mm 0.00 in0.0 mm 0.00 in0.0 mm
10:06 PM 60.1°F15.6°C 40.3°F4.6°C 48% 2.5 mph ESE4.0 kmh ESE 3.1 mph5.0 kmh 30.07 in1018.3 mb 0.00 in0.0 mm 0.00 in0.0 mm 0.00 in0.0 mm
10:11 PM 59.6°F15.3°C 39.9°F4.4°C 48% 3.7 mph 6.0 kmh 3.8 mph6.1 kmh 30.07 in1018.3 mb 0.00 in0.0 mm 0.00 in0.0 mm 0.00 in0.0 mm
10:16 PM 58.7°F14.8°C 40.1°F4.5°C 50% 3.3 mph NNW5.3 kmh NNW 3.8 mph6.1 kmh 30.07 in1018.3 mb 0.00 in0.0 mm 0.00 in0.0 mm 0.00 in0.0 mm
10:21 PM 58.0°F14.4°C 39.0°F3.9°C 49% 5.6 mph 9.0 kmh 6.5 mph10.5 kmh 30.08 in1018.6 mb 0.00 in0.0 mm 0.00 in0.0 mm 0.00 in0.0 mm
10:26 PM 56.5°F13.6°C 39.1°F3.9°C 52% 5.6 mph N9.0 kmh N 6.5 mph10.5 kmh 30.08 in1018.6 mb 0.00 in0.0 mm 0.00 in0.0 mm 0.00 in0.0 mm
10:31 PM 56.0°F13.3°C 40.4°F4.7°C 56% 7.6 mph 12.2 kmh 8.3 mph13.4 kmh 30.08 in1018.6 mb 0.00 in0.0 mm 0.00 in0.0 mm 0.00 in0.0 mm
10:36 PM 56.5°F13.6°C 40.5°F4.7°C 55% 5.7 mph N9.2 kmh N 8.5 mph13.7 kmh 30.08 in1018.6 mb 0.00 in0.0 mm 0.00 in0.0 mm 0.00 in0.0 mm
10:41 PM 56.2°F13.4°C 39.7°F4.3°C 54% 4.8 mph NNE7.7 kmh NNE 8.5 mph13.7 kmh 30.08 in1018.6 mb 0.00 in0.0 mm 0.00 in0.0 mm 0.00 in0.0 mm
10:46 PM 55.8°F13.2°C 39.3°F4.1°C 54% 5.4 mph NNE8.7 kmh NNE 5.4 mph8.7 kmh 30.08 in1018.6 mb 0.00 in0.0 mm 0.00 in0.0 mm 0.00 in0.0 mm
10:50 PM 55.3°F12.9°C 38.8°F3.8°C 54% 5.3 mph 8.5 kmh 6.3 mph10.1 kmh 30.08 in1018.6 mb 0.00 in0.0 mm 0.00 in0.0 mm 0.00 in0.0 mm
10:55 PM 54.5°F12.5°C 38.6°F3.7°C 55% 5.2 mph 8.4 kmh 6.3 mph10.1 kmh 30.08 in1018.6 mb 0.00 in0.0 mm 0.00 in0.0 mm 0.00 in0.0 mm
11:01 PM 53.8°F12.1°C 38.9°F3.8°C 57% 6.6 mph NE10.6 kmh NE 6.7 mph10.8 kmh 30.08 in1018.6 mb 0.00 in0.0 mm 0.00 in0.0 mm 0.00 in0.0 mm
11:06 PM 53.3°F11.8°C 38.4°F3.6°C 57% 2.6 mph N4.2 kmh N 6.7 mph10.8 kmh 30.08 in1018.6 mb 0.00 in0.0 mm 0.00 in0.0 mm 0.00 in0.0 mm
11:11 PM 52.9°F11.6°C 38.1°F3.4°C 57% 1.7 mph NNW2.7 kmh NNW 5.6 mph9.0 kmh 30.09 in1019.0 mb 0.00 in0.0 mm 0.00 in0.0 mm 0.00 in0.0 mm
11:16 PM 52.7°F11.5°C 37.9°F3.3°C 57% 6.9 mph NNW11.1 kmh NNW 7.4 mph11.9 kmh 30.09 in1019.0 mb 0.00 in0.0 mm 0.00 in0.0 mm 0.00 in0.0 mm
11:21 PM 52.2°F11.2°C 37.4°F3.0°C 57% 3.6 mph NW5.8 kmh NW 7.4 mph11.9 kmh 30.09 in1019.0 mb 0.00 in0.0 mm 0.00 in0.0 mm 0.00 in0.0 mm
11:26 PM 51.7°F10.9°C 37.3°F2.9°C 58% 1.5 mph N2.4 kmh N 6.3 mph10.1 kmh 30.09 in1019.0 mb 0.00 in0.0 mm 0.00 in0.0 mm 0.00 in0.0 mm
11:31 PM 51.1°F10.6°C 36.8°F2.7°C 58% 3.0 mph E4.8 kmh E 4.0 mph6.4 kmh 30.09 in1019.0 mb 0.00 in0.0 mm 0.00 in0.0 mm 0.00 in0.0 mm
11:36 PM 50.8°F10.4°C 36.9°F2.7°C 59% 2.2 mph SE3.5 kmh SE 7.2 mph11.6 kmh 30.09 in1019.0 mb 0.00 in0.0 mm 0.00 in0.0 mm 0.00 in0.0 mm
11:41 PM 50.6°F10.3°C 36.7°F2.6°C 59% 1.5 mph S2.4 kmh S 7.2 mph11.6 kmh 30.09 in1019.0 mb 0.00 in0.0 mm 0.00 in0.0 mm 0.00 in0.0 mm
11:46 PM 50.4°F10.2°C 37.1°F2.8°C 60% 2.5 mph SSE4.0 kmh SSE 3.1 mph5.0 kmh 30.09 in1019.0 mb 0.00 in0.0 mm 0.00 in0.0 mm 0.00 in0.0 mm
11:51 PM 50.2°F10.1°C 36.9°F2.7°C 60% 2.3 mph SE3.7 kmh SE 2.9 mph4.7 kmh 30.09 in1019.0 mb 0.00 in0.0 mm 0.00 in0.0 mm 0.00 in0.0 mm
11:56 PM 50.0°F10.0°C 36.7°F2.6°C 60% 2.7 mph SSW4.3 kmh SSW 2.9 mph4.7 kmh 30.09 in1019.0 mb 0.00 in0.0 mm 0.00 in0.0 mm 0.00 in0.0 mm